Prevelis — SYDL — position and weather

sailwx.info

Track history (hours):
 
Tides and Currents Weather Stations Pressure Air Temp Water Temp Dewpoint Dewpoint Depression Visibility Wind Speed Wind Dir Waves Ship Positions

Prevelis

Last reported at 2017-Aug-21 16:53 UTC. Time now 2017-Aug-23 13:45 UTC.
Position N 37°33' E 023°52'.

Length 143 m; draft 5.5 m.

Type: Passenger vessel. MMSI: 239297000.

Date/timePositionNaut miles runAvg speedWind from/ knotsBaromVisibWave heightAir tempDewpointWater temp
2017-Aug-21 16:53N 37°33' E 023°52'717.0
2017-Aug-21 16:30N 37°37' E 023°46'816.5
2017-Aug-21 16:00N 37°44' E 023°40'816.6
2017-Aug-21 15:30N 37°52' E 023°37'510.6
2017-Aug-21 15:00N 37°57' E 023°38'0 0.0
2017-Aug-21 14:30N 37°57' E 023°38'0 0.0
2017-Aug-21 14:00N 37°57' E 023°38'0 0.0
2017-Aug-21 13:30N 37°57' E 023°38'0 0.0
2017-Aug-21 13:00N 37°57' E 023°38'0 0.0
2017-Aug-21 12:30N 37°57' E 023°38'0 0.0
2017-Aug-21 12:00N 37°57' E 023°38'0 0.0
2017-Aug-21 11:30N 37°57' E 023°38'0 0.0
2017-Aug-21 11:00N 37°57' E 023°38'3 6.6
2017-Aug-21 10:30N 37°54' E 023°39'816.9
2017-Aug-21 10:00N 37°46' E 023°42'2217.1
2017-Aug-21 08:45N 37°26' E 023°53'417.4
2017-Aug-21 08:30N 37°22' E 023°54'917.1
2017-Aug-21 07:58N 37°14' E 024°00'1217.0
2017-Aug-21 07:15N 37°04' E 024°09'416.6
2017-Aug-21 07:00N 37°00' E 024°12'  
2017-Aug-18 16:47N 37°32' E 023°48'516.9
2017-Aug-18 16:28N 37°37' E 023°44'817.1
2017-Aug-18 16:01N 37°44' E 023°40'816.8
2017-Aug-18 15:30N 37°52' E 023°37'510.4
2017-Aug-18 15:00N 37°57' E 023°38'0 0.0
2017-Aug-18 14:00N 37°57' E 023°38'0 0.0
2017-Aug-18 13:30N 37°57' E 023°38'0 0.0
2017-Aug-18 13:00N 37°57' E 023°38'0 0.0
2017-Aug-18 12:30N 37°57' E 023°38'0 0.0
2017-Aug-18 12:00N 37°57' E 023°38'0 0.0
2017-Aug-18 11:30N 37°57' E 023°38'0 0.0
2017-Aug-18 11:00N 37°57' E 023°38'0 0.0
2017-Aug-18 10:30N 37°57' E 023°38'0 0.0
2017-Aug-18 10:00N 37°57' E 023°38'0 0.0
2017-Aug-18 09:30N 37°57' E 023°38'0 0.0
2017-Aug-18 09:00N 37°57' E 023°38'0 0.0
2017-Aug-18 08:30N 37°57' E 023°38'0 0.0
2017-Aug-18 08:00N 37°57' E 023°38'0 0.0
2017-Aug-18 07:30N 37°57' E 023°38'0 0.0
2017-Aug-18 07:00N 37°57' E 023°38'0 0.0
2017-Aug-18 06:30N 37°57' E 023°38'0 0.0
2017-Aug-18 06:00N 37°57' E 023°38'1 2.7
2017-Aug-18 05:30N 37°56' E 023°37'510.7
2017-Aug-18 05:01N 37°51' E 023°39'816.8
2017-Aug-18 04:30N 37°43' E 023°44'816.6
2017-Aug-18 04:00N 37°37' E 023°50'  
2017-Aug-14 16:52N 37°33' E 023°52'617.1
2017-Aug-14 16:30N 37°37' E 023°46'816.5
2017-Aug-14 16:00N 37°44' E 023°40'816.2
2017-Aug-14 15:30N 37°52' E 023°37'510.6
2017-Aug-14 15:00N 37°57' E 023°38'0 0.0
2017-Aug-14 14:30N 37°57' E 023°38'0 0.0
2017-Aug-14 14:00N 37°57' E 023°38'0 0.0
2017-Aug-14 13:30N 37°57' E 023°38'0 0.0
2017-Aug-14 13:00N 37°57' E 023°38'0 0.0
2017-Aug-14 12:30N 37°57' E 023°38'4 8.4
2017-Aug-14 12:01N 37°53' E 023°38'816.9
2017-Aug-14 11:31N 37°45' E 023°43'190 9.1
2017-Aug-13 14:42N 35°17' E 026°11'177 3.9
2017-Aug-11 17:15N 37°31' E 023°48'416.4
2017-Aug-11 17:00N 37°34' E 023°46'  
Track history (hours):
 
Tides and Currents Weather Stations Pressure Air Temp Water Temp Dewpoint Dewpoint Depression Visibility Wind Speed Wind Dir Waves Ship Positions

Prevelis

Last reported at 2017-Aug-21 16:53 UTC. Time now 2017-Aug-23 13:45 UTC.
Position N 37°33' E 023°52'.

Length 143 m; draft 5.5 m.

Type: Passenger vessel. MMSI: 239297000.

Date/timePositionNaut miles runAvg speedWind from/ knotsBaromVisibWave heightAir tempDewpointWater temp
2017-Aug-21 16:53N 37°33' E 023°52'717.0
2017-Aug-21 16:30N 37°37' E 023°46'816.5
2017-Aug-21 16:00N 37°44' E 023°40'816.6
2017-Aug-21 15:30N 37°52' E 023°37'510.6
2017-Aug-21 15:00N 37°57' E 023°38'0 0.0
2017-Aug-21 14:30N 37°57' E 023°38'0 0.0
2017-Aug-21 14:00N 37°57' E 023°38'0 0.0
2017-Aug-21 13:30N 37°57' E 023°38'0 0.0
2017-Aug-21 13:00N 37°57' E 023°38'0 0.0
2017-Aug-21 12:30N 37°57' E 023°38'0 0.0
2017-Aug-21 12:00N 37°57' E 023°38'0 0.0
2017-Aug-21 11:30N 37°57' E 023°38'0 0.0
2017-Aug-21 11:00N 37°57' E 023°38'3 6.6
2017-Aug-21 10:30N 37°54' E 023°39'816.9
2017-Aug-21 10:00N 37°46' E 023°42'2217.1
2017-Aug-21 08:45N 37°26' E 023°53'417.4
2017-Aug-21 08:30N 37°22' E 023°54'917.1
2017-Aug-21 07:58N 37°14' E 024°00'1217.0
2017-Aug-21 07:15N 37°04' E 024°09'416.6
2017-Aug-21 07:00N 37°00' E 024°12'  
2017-Aug-18 16:47N 37°32' E 023°48'516.9
2017-Aug-18 16:28N 37°37' E 023°44'817.1
2017-Aug-18 16:01N 37°44' E 023°40'816.8
2017-Aug-18 15:30N 37°52' E 023°37'510.4
2017-Aug-18 15:00N 37°57' E 023°38'0 0.0
2017-Aug-18 14:00N 37°57' E 023°38'0 0.0
2017-Aug-18 13:30N 37°57' E 023°38'0 0.0
2017-Aug-18 13:00N 37°57' E 023°38'0 0.0
2017-Aug-18 12:30N 37°57' E 023°38'0 0.0
2017-Aug-18 12:00N 37°57' E 023°38'0 0.0
2017-Aug-18 11:30N 37°57' E 023°38'0 0.0
2017-Aug-18 11:00N 37°57' E 023°38'0 0.0
2017-Aug-18 10:30N 37°57' E 023°38'0 0.0
2017-Aug-18 10:00N 37°57' E 023°38'0 0.0
2017-Aug-18 09:30N 37°57' E 023°38'0 0.0
2017-Aug-18 09:00N 37°57' E 023°38'0 0.0
2017-Aug-18 08:30N 37°57' E 023°38'0 0.0
2017-Aug-18 08:00N 37°57' E 023°38'0 0.0
2017-Aug-18 07:30N 37°57' E 023°38'0 0.0
2017-Aug-18 07:00N 37°57' E 023°38'0 0.0
2017-Aug-18 06:30N 37°57' E 023°38'0 0.0
2017-Aug-18 06:00N 37°57' E 023°38'1 2.7
2017-Aug-18 05:30N 37°56' E 023°37'510.7
2017-Aug-18 05:01N 37°51' E 023°39'816.8
2017-Aug-18 04:30N 37°43' E 023°44'816.6
2017-Aug-18 04:00N 37°37' E 023°50'  
2017-Aug-14 16:52N 37°33' E 023°52'617.1
2017-Aug-14 16:30N 37°37' E 023°46'816.5
2017-Aug-14 16:00N 37°44' E 023°40'816.2
2017-Aug-14 15:30N 37°52' E 023°37'510.6
2017-Aug-14 15:00N 37°57' E 023°38'0 0.0
2017-Aug-14 14:30N 37°57' E 023°38'0 0.0
2017-Aug-14 14:00N 37°57' E 023°38'0 0.0
2017-Aug-14 13:30N 37°57' E 023°38'0 0.0
2017-Aug-14 13:00N 37°57' E 023°38'0 0.0
2017-Aug-14 12:30N 37°57' E 023°38'4 8.4
2017-Aug-14 12:01N 37°53' E 023°38'816.9
2017-Aug-14 11:31N 37°45' E 023°43'190 9.1
2017-Aug-13 14:42N 35°17' E 026°11'177 3.9
2017-Aug-11 17:15N 37°31' E 023°48'416.4
2017-Aug-11 17:00N 37°34' E 023°46'  

Dump ship's entire track history